KNRS/NRS METAR and TAF weather

Enter ICAO airport designator
Station Type Date Time Source
KNRS METAR 2020/08/11 00:56 UTC NOAA

KNRS 110056Z 30010KT 10SM FEW014 22/17 A2989 RMK AO2 SLP122 T02170172 $


Station Type Date Time Source
KNRS Decoded METAR 2020/08/11 00:56 UTC NOAA

IMPERIAL BEACH, NOLF, CA, United States (KNRS) 32-34N 117-07W 5M
Aug 10, 2020 - 08:56 PM EDT / 2020.08.11 0056 UTC
Wind: from the WNW (300 degrees) at 12 MPH (10 KT):0
Visibility: 10 mile(s):0
Sky conditions: mostly clear
Temperature: 71.1 F (21.7 C)
Dew Point: 63.0 F (17.2 C)
Relative Humidity: 75%
Pressure (altimeter): 29.89 in. Hg (1012 hPa)
ob: KNRS 110056Z 30010KT 10SM FEW014 22/17 A2989 RMK AO2 SLP122 T02170172
cycle: 1

Station Type Date Time Source
KNRS TAF UTC NOAA

Error!

Example: see airport list